Time;durP1;ratioP1;P1;durP2;ratioP2;P2;SDS_P1;SDS_P2;PMS_P1;PMS_P2;Temp;Humidity;BMP_temperature;BMP_pressure;BME280_temperature;BME280_humidity;BME280_pressure;Samples;Min_cycle;Max_cycle;Signal;HPM_P1;HPM_P2
2023/04/29 00:01:38;;;;;;;15.00;13.63;;;11.80;99.90;;;;;;5083080;28;20432;-73
2023/04/29 00:04:05;;;;;;;15.93;14.52;;;11.80;99.90;;;;;;5079784;28;20517;-73
2023/04/29 00:06:32;;;;;;;15.30;13.90;;;11.80;99.90;;;;;;5085721;28;20414;-73
2023/04/29 00:08:58;;;;;;;15.07;13.50;;;11.80;99.90;;;;;;5074044;28;20428;-72
2023/04/29 00:11:26;;;;;;;14.40;13.10;;;11.80;99.90;;;;;;5064129;28;20421;-74
2023/04/29 00:13:53;;;;;;;15.70;14.20;;;11.80;99.90;;;;;;5073387;28;20840;-74
2023/04/29 00:16:20;;;;;;;14.30;12.85;;;11.80;99.90;;;;;;5073579;28;20425;-72
2023/04/29 00:18:47;;;;;;;15.60;14.10;;;11.80;99.90;;;;;;5079673;28;20525;-72
2023/04/29 00:21:13;;;;;;;14.40;13.00;;;11.80;99.90;;;;;;5076407;28;20446;-73
2023/04/29 00:23:40;;;;;;;14.27;12.88;;;11.90;99.90;;;;;;5067181;28;20459;-76
2023/04/29 00:26:07;;;;;;;15.23;13.63;;;11.90;99.90;;;;;;5069116;28;20478;-72
2023/04/29 00:28:35;;;;;;;15.40;13.90;;;11.90;99.90;;;;;;5080742;28;20791;-73
2023/04/29 00:31:02;;;;;;;15.45;14.05;;;11.90;99.90;;;;;;5077658;28;20414;-73
2023/04/29 00:33:28;;;;;;;14.17;12.77;;;11.90;99.90;;;;;;5080234;28;20422;-72
2023/04/29 00:35:55;;;;;;;14.63;13.13;;;11.90;99.90;;;;;;5081055;28;20926;-72
2023/04/29 00:38:22;;;;;;;14.73;13.32;;;11.90;99.90;;;;;;5067521;28;20430;-73
2023/04/29 00:40:49;;;;;;;15.38;13.98;;;11.90;99.90;;;;;;5048283;28;20784;-72
2023/04/29 00:43:16;;;;;;;14.38;12.98;;;11.90;99.90;;;;;;5077727;28;20435;-73
2023/04/29 00:45:44;;;;;;;12.38;11.18;;;11.90;99.90;;;;;;5085253;28;20410;-72
2023/04/29 00:48:11;;;;;;;12.70;11.50;;;12.00;99.90;;;;;;5070021;28;20505;-73
2023/04/29 00:50:38;;;;;;;12.80;11.60;;;12.00;99.90;;;;;;5073630;28;20474;-73
2023/04/29 00:53:05;;;;;;;12.60;11.35;;;12.00;99.90;;;;;;5073468;28;20432;-72
2023/04/29 00:55:33;;;;;;;12.63;11.43;;;11.90;99.90;;;;;;5057674;28;20706;-72
2023/04/29 00:58:01;;;;;;;11.90;10.70;;;11.90;99.90;;;;;;5078437;28;20768;-72
2023/04/29 01:00:28;;;;;;;12.50;11.30;;;11.90;99.90;;;;;;5075054;28;20438;-72
2023/04/29 01:02:56;;;;;;;12.90;11.60;;;11.90;99.90;;;;;;5071799;28;20422;-72
2023/04/29 01:05:24;;;;;;;12.73;11.52;;;11.90;99.90;;;;;;5082300;28;20845;-73
2023/04/29 01:08:05;;;;;;;13.25;11.95;;;11.90;99.90;;;;;;5071015;28;20492;-73
2023/04/29 01:10:39;;;;;;;12.75;11.50;;;11.90;99.90;;;;;;5055705;28;20442;-73
2023/04/29 01:13:13;;;;;;;14.05;12.65;;;11.90;99.90;;;;;;5070587;28;20436;-72
2023/04/29 01:15:47;;;;;;;14.20;12.85;;;11.90;99.90;;;;;;5070695;28;20423;-72
2023/04/29 01:18:22;;;;;;;13.73;12.43;;;11.90;99.90;;;;;;5079662;28;20952;-72
2023/04/29 01:20:49;;;;;;;13.63;12.23;;;11.90;99.90;;;;;;5080609;28;20856;-73
2023/04/29 01:23:16;;;;;;;14.10;12.70;;;11.80;99.90;;;;;;5068742;28;20451;-73
2023/04/29 01:25:45;;;;;;;14.90;13.43;;;11.80;99.90;;;;;;5064069;28;20417;-72
2023/04/29 01:28:26;;;;;;;15.50;14.07;;;11.80;99.90;;;;;;5083977;28;20509;-73
2023/04/29 01:31:00;;;;;;;15.98;14.48;;;11.80;99.90;;;;;;5058733;28;20517;-73
2023/04/29 01:33:34;;;;;;;16.60;15.00;;;11.80;99.90;;;;;;5081876;28;20503;-73
2023/04/29 01:36:14;;;;;;;17.60;16.00;;;11.70;99.90;;;;;;5071122;28;20442;-73
2023/04/29 01:38:47;;;;;;;17.15;15.45;;;11.70;99.90;;;;;;5068562;28;20521;-72
2023/04/29 01:41:18;;;;;;;18.35;16.55;;;11.70;99.90;;;;;;5047260;28;20542;-73
2023/04/29 01:43:50;;;;;;;17.75;16.05;;;11.70;99.90;;;;;;5070686;28;20485;-71
2023/04/29 01:46:18;;;;;;;18.75;16.85;;;11.70;99.90;;;;;;5083591;28;20422;-71
2023/04/29 01:48:45;;;;;;;19.40;17.40;;;11.70;99.90;;;;;;5079284;28;20453;-72
2023/04/29 01:51:11;;;;;;;19.58;17.77;;;11.70;99.90;;;;;;5062044;28;20435;-71
2023/04/29 01:53:39;;;;;;;21.02;18.83;;;11.70;99.90;;;;;;5055564;28;20524;-71
2023/04/29 01:56:07;;;;;;;20.80;18.70;;;11.70;99.90;;;;;;5058698;28;20525;-71
2023/04/29 01:58:35;;;;;;;25.40;22.90;;;11.70;99.90;;;;;;5064973;28;20419;-71
2023/04/29 02:01:01;;;;;;;25.20;22.70;;;11.70;99.90;;;;;;5056040;28;20900;-71
2023/04/29 02:03:28;;;;;;;25.63;23.13;;;11.70;99.90;;;;;;5071670;28;20436;-72
2023/04/29 02:05:56;;;;;;;26.73;24.15;;;11.70;99.90;;;;;;5083360;28;20876;-71
2023/04/29 02:08:22;;;;;;;30.13;27.13;;;11.60;99.90;;;;;;5062955;28;20557;-73
2023/04/29 02:10:53;;;;;;;29.70;26.75;;;11.60;99.90;;;;;;5059333;28;20452;-71
2023/04/29 02:13:20;;;;;;;31.13;28.02;;;11.60;99.90;;;;;;5083258;28;20448;-72
2023/04/29 02:15:48;;;;;;;29.80;26.83;;;11.50;99.90;;;;;;5069087;28;20445;-71
2023/04/29 02:18:15;;;;;;;30.90;27.80;;;11.40;99.90;;;;;;5083702;28;20413;-70
2023/04/29 02:20:42;;;;;;;32.00;28.80;;;11.40;99.90;;;;;;5083802;28;20903;-71
2023/04/29 02:23:09;;;;;;;33.20;29.90;;;11.40;99.90;;;;;;5059306;28;20433;-72
2023/04/29 02:25:36;;;;;;;32.92;29.55;;;11.40;99.90;;;;;;5062468;28;20935;-74
2023/04/29 02:28:02;;;;;;;34.20;30.60;;;11.40;99.90;;;;;;5052827;28;20437;-72
2023/04/29 02:30:29;;;;;;;32.72;29.38;;;11.40;99.90;;;;;;5079628;28;20432;-73
2023/04/29 02:32:57;;;;;;;32.85;29.55;;;11.40;99.90;;;;;;5076838;28;20838;-73
2023/04/29 02:35:24;;;;;;;32.72;29.33;;;11.40;99.90;;;;;;5080549;28;20458;-73
2023/04/29 02:37:51;;;;;;;33.17;29.75;;;11.40;99.90;;;;;;5072397;28;20533;-73
2023/04/29 02:40:18;;;;;;;33.55;30.08;;;11.40;99.90;;;;;;5055720;28;20444;-73
2023/04/29 02:42:44;;;;;;;34.75;31.23;;;11.40;99.90;;;;;;5057902;28;20941;-74
2023/04/29 02:45:11;;;;;;;34.67;31.08;;;11.40;99.90;;;;;;5067606;28;20409;-73
2023/04/29 02:47:38;;;;;;;36.08;32.28;;;11.40;99.90;;;;;;5073026;28;20463;-71
2023/04/29 02:50:07;;;;;;;36.78;32.88;;;11.40;99.90;;;;;;5085959;28;20900;-71
2023/04/29 02:52:34;;;;;;;35.90;32.20;;;11.40;99.90;;;;;;5065861;28;20524;-72
2023/04/29 02:55:02;;;;;;;36.85;32.90;;;11.30;99.90;;;;;;5055294;28;20479;-71
2023/04/29 02:57:29;;;;;;;40.47;35.97;;;11.30;99.90;;;;;;5072577;28;20425;-71
2023/04/29 02:59:56;;;;;;;39.75;35.42;;;11.20;99.90;;;;;;5087269;28;20773;-72
2023/04/29 03:02:23;;;;;;;40.83;36.53;;;11.10;99.90;;;;;;5075876;28;20505;-71
2023/04/29 03:04:49;;;;;;;45.90;38.17;;;11.10;99.90;;;;;;5078926;28;20424;-72
2023/04/29 03:07:17;;;;;;;41.25;36.42;;;11.10;99.90;;;;;;5071420;28;20531;-72
2023/04/29 03:09:44;;;;;;;45.60;38.70;;;11.00;99.90;;;;;;5065701;28;20422;-71
2023/04/29 03:12:11;;;;;;;44.78;37.83;;;11.00;99.90;;;;;;5074096;28;20548;-71
2023/04/29 03:14:38;;;;;;;44.97;39.63;;;11.00;99.90;;;;;;5079129;28;20420;-71
2023/04/29 03:17:05;;;;;;;48.92;40.00;;;11.00;99.90;;;;;;5080381;28;20856;-74
2023/04/29 03:19:32;;;;;;;46.63;39.58;;;11.00;99.90;;;;;;5075711;28;20501;-72
2023/04/29 03:21:58;;;;;;;50.28;41.92;;;10.90;99.90;;;;;;5069638;28;20435;-71
2023/04/29 03:24:26;;;;;;;49.78;42.70;;;10.90;99.90;;;;;;5057547;28;20467;-72
2023/04/29 03:26:53;;;;;;;53.75;44.35;;;10.80;99.90;;;;;;5072024;28;20594;-71
2023/04/29 03:29:20;;;;;;;49.22;42.17;;;10.80;99.90;;;;;;5075381;28;20429;-71
2023/04/29 03:31:47;;;;;;;53.35;45.40;;;10.70;99.90;;;;;;5081742;28;20514;-71
2023/04/29 03:34:14;;;;;;;57.30;46.05;;;10.70;99.90;;;;;;5083061;28;20456;-73
2023/04/29 03:36:40;;;;;;;60.42;46.95;;;10.70;99.90;;;;;;5078341;28;20454;-70
2023/04/29 03:39:07;;;;;;;61.35;47.30;;;10.70;99.90;;;;;;5060745;28;20475;-73
2023/04/29 03:41:35;;;;;;;64.00;48.25;;;10.60;99.90;;;;;;5072531;28;20790;-71
2023/04/29 03:44:02;;;;;;;65.75;48.25;;;10.60;99.90;;;;;;5085198;28;20420;-74
2023/04/29 03:46:29;;;;;;;66.53;46.35;;;10.60;99.90;;;;;;5083537;28;20402;-71
2023/04/29 03:48:56;;;;;;;61.00;43.03;;;10.50;99.90;;;;;;5074898;28;20527;-74
2023/04/29 03:51:23;;;;;;;67.63;42.63;;;10.40;99.90;;;;;;5075721;28;20439;-70
2023/04/29 03:53:50;;;;;;;72.77;44.13;;;10.40;99.90;;;;;;5050243;28;20538;-71
2023/04/29 03:56:17;;;;;;;70.80;43.47;;;10.30;99.90;;;;;;5068255;28;20443;-71
2023/04/29 03:58:45;;;;;;;73.38;44.60;;;10.30;99.90;;;;;;5075305;28;20440;-71
2023/04/29 04:01:12;;;;;;;78.45;46.25;;;10.30;99.90;;;;;;5078801;28;20777;-73
2023/04/29 04:03:39;;;;;;;78.22;45.58;;;10.30;99.90;;;;;;5068589;28;20441;-73
2023/04/29 04:06:06;;;;;;;84.05;47.08;;;10.30;99.90;;;;;;5070335;28;20425;-71
2023/04/29 04:08:33;;;;;;;73.68;44.13;;;10.40;99.90;;;;;;5054109;28;20493;-71
2023/04/29 04:11:02;;;;;;;63.72;40.63;;;10.40;99.90;;;;;;5082329;28;20505;-71
2023/04/29 04:13:28;;;;;;;62.40;38.60;;;10.40;99.90;;;;;;5077671;28;20430;-73
2023/04/29 04:15:56;;;;;;;57.22;38.08;;;10.30;99.90;;;;;;5072114;28;20432;-73
2023/04/29 04:18:23;;;;;;;55.88;36.38;;;10.20;99.90;;;;;;5068829;28;20432;-65
2023/04/29 04:20:50;;;;;;;61.63;38.95;;;10.10;99.90;;;;;;5060386;28;20440;-71
2023/04/29 04:23:17;;;;;;;60.90;38.35;;;10.20;99.90;;;;;;5066395;28;20763;-73
2023/04/29 04:25:47;;;;;;;64.10;40.15;;;10.20;99.90;;;;;;5060358;28;20406;-72
2023/04/29 04:28:14;;;;;;;60.83;39.00;;;10.20;99.90;;;;;;5080865;28;20513;-72
2023/04/29 04:30:41;;;;;;;61.63;38.47;;;10.10;99.90;;;;;;5069717;28;20580;-72
2023/04/29 04:33:09;;;;;;;55.20;38.15;;;10.20;99.90;;;;;;5057018;28;20415;-73
2023/04/29 04:35:36;;;;;;;59.72;38.70;;;10.20;99.90;;;;;;5073308;28;20517;-74
2023/04/29 04:38:03;;;;;;;56.55;38.38;;;10.20;99.90;;;;;;5054998;28;20435;-70
2023/04/29 04:40:29;;;;;;;57.08;37.45;;;10.20;99.90;;;;;;5057269;28;20439;-71
2023/04/29 04:42:56;;;;;;;52.75;35.30;;;10.20;99.90;;;;;;5067383;28;20438;-71
2023/04/29 04:45:23;;;;;;;54.97;35.92;;;10.20;99.90;;;;;;5053373;28;20457;-71
2023/04/29 04:47:49;;;;;;;54.13;36.35;;;10.20;99.90;;;;;;5068695;28;20419;-71
2023/04/29 04:50:18;;;;;;;54.63;36.53;;;10.20;99.90;;;;;;5061626;28;20784;-72
2023/04/29 04:52:44;;;;;;;53.25;37.95;;;10.20;99.90;;;;;;5060420;28;20444;-72
2023/04/29 04:55:11;;;;;;;55.13;36.95;;;10.20;99.90;;;;;;5061717;28;20437;-69
2023/04/29 04:57:38;;;;;;;54.10;38.75;;;10.20;99.90;;;;;;5067899;28;20458;-70
2023/04/29 05:00:06;;;;;;;51.63;36.40;;;10.20;99.90;;;;;;5055081;28;20894;-71
2023/04/29 05:02:33;;;;;;;54.80;37.50;;;10.20;99.90;;;;;;5065667;28;20893;-72
2023/04/29 05:04:59;;;;;;;49.80;35.33;;;10.20;99.90;;;;;;5075849;28;20423;-71
2023/04/29 05:07:27;;;;;;;47.80;34.88;;;10.20;99.90;;;;;;5064100;28;20431;-71
2023/04/29 05:09:54;;;;;;;45.83;32.42;;;10.00;99.90;;;;;;5055864;28;20534;-71
2023/04/29 05:12:22;;;;;;;45.58;31.33;;;10.00;99.90;;;;;;5054417;28;20436;-70
2023/04/29 05:14:52;;;;;;;49.38;33.83;;;10.00;99.90;;;;;;5070088;28;20443;-70
2023/04/29 05:17:19;;;;;;;43.03;31.50;;;10.10;99.90;;;;;;5062317;28;20427;-70
2023/04/29 05:19:46;;;;;;;40.05;29.10;;;10.10;99.90;;;;;;5051324;28;20537;-70
2023/04/29 05:22:13;;;;;;;39.13;29.40;;;10.00;99.90;;;;;;5066870;28;20909;-70
2023/04/29 05:24:41;;;;;;;34.70;26.65;;;10.10;99.90;;;;;;5066896;28;20408;-70
2023/04/29 05:27:07;;;;;;;33.17;26.60;;;10.00;99.90;;;;;;5060841;28;20741;-70
2023/04/29 05:29:34;;;;;;;33.95;26.20;;;10.00;99.90;;;;;;5067710;28;20843;-71
2023/04/29 05:32:01;;;;;;;32.35;25.67;;;9.90;99.90;;;;;;5063989;28;20425;-71
2023/04/29 05:34:28;;;;;;;34.67;26.15;;;9.90;99.90;;;;;;5060873;28;20424;-71
2023/04/29 05:36:56;;;;;;;34.67;26.80;;;9.80;99.90;;;;;;5068658;28;20922;-71
2023/04/29 05:39:23;;;;;;;35.22;26.48;;;9.80;99.90;;;;;;5061514;28;21816;-72
2023/04/29 05:41:51;;;;;;;33.78;25.70;;;9.90;99.90;;;;;;5058146;28;20503;-72
2023/04/29 05:44:17;;;;;;;31.23;24.92;;;9.90;99.90;;;;;;5060027;28;20446;-71
2023/04/29 05:46:45;;;;;;;32.70;25.33;;;10.00;99.90;;;;;;5065367;28;20430;-71
2023/04/29 05:49:11;;;;;;;31.52;25.55;;;10.00;99.90;;;;;;5052983;28;20439;-71
2023/04/29 05:51:38;;;;;;;32.58;25.63;;;10.00;99.90;;;;;;5064214;28;20433;-71
2023/04/29 05:54:05;;;;;;;31.10;24.63;;;10.00;99.90;;;;;;5055262;28;20451;-71
2023/04/29 05:56:32;;;;;;;30.70;25.23;;;10.00;99.90;;;;;;5058264;28;20886;-72
2023/04/29 05:59:00;;;;;;;31.17;25.27;;;10.00;99.90;;;;;;5061900;28;20431;-71
2023/04/29 06:01:26;;;;;;;28.17;23.73;;;10.00;99.90;;;;;;5052635;28;20445;-72
2023/04/29 06:03:53;;;;;;;29.58;23.83;;;10.10;99.90;;;;;;5058892;28;20435;-70
2023/04/29 06:06:20;;;;;;;26.20;22.13;;;10.20;99.90;;;;;;5069174;28;20534;-70
2023/04/29 06:08:47;;;;;;;24.83;21.00;;;10.20;99.90;;;;;;5058412;28;20442;-69
2023/04/29 06:11:13;;;;;;;25.08;21.40;;;10.20;99.90;;;;;;5065327;28;20443;-69
2023/04/29 06:13:40;;;;;;;25.75;20.85;;;10.20;99.90;;;;;;5063555;28;20771;-69
2023/04/29 06:16:09;;;;;;;22.38;19.70;;;10.20;99.90;;;;;;5063426;28;20489;-69
2023/04/29 06:18:36;;;;;;;20.10;18.00;;;10.20;99.90;;;;;;5067546;28;20432;-69
2023/04/29 06:21:03;;;;;;;21.80;18.23;;;10.20;99.90;;;;;;5066389;28;20449;-70
2023/04/29 06:23:30;;;;;;;20.42;18.23;;;10.20;99.90;;;;;;5080619;28;20835;-69
2023/04/29 06:25:57;;;;;;;19.17;17.17;;;10.30;99.90;;;;;;5075873;28;20432;-68
2023/04/29 06:28:24;;;;;;;20.23;18.13;;;10.30;99.90;;;;;;5067735;28;20443;-69
2023/04/29 06:30:51;;;;;;;19.42;17.42;;;10.30;99.90;;;;;;5061968;28;20451;-69
2023/04/29 06:33:19;;;;;;;19.95;17.90;;;10.40;99.90;;;;;;5062890;28;20770;-72
2023/04/29 06:35:45;;;;;;;20.40;18.30;;;10.40;99.90;;;;;;5061753;28;20432;-71
2023/04/29 06:38:12;;;;;;;20.40;18.23;;;10.40;99.90;;;;;;5062147;28;20431;-70
2023/04/29 06:40:39;;;;;;;19.33;17.40;;;10.40;99.90;;;;;;5059313;28;20455;-71
2023/04/29 06:43:05;;;;;;;19.67;17.58;;;10.50;99.90;;;;;;5070818;28;20441;-70
2023/04/29 06:45:32;;;;;;;19.73;17.30;;;10.60;99.90;;;;;;5063640;28;20427;-71
2023/04/29 06:47:59;;;;;;;20.88;18.67;;;10.60;99.90;;;;;;5065814;28;20435;-70
2023/04/29 06:50:27;;;;;;;21.33;19.02;;;10.60;99.90;;;;;;5064959;28;20433;-70
2023/04/29 06:52:54;;;;;;;20.25;18.15;;;10.70;99.90;;;;;;5066665;28;20427;-70
2023/04/29 06:55:20;;;;;;;19.17;17.10;;;10.60;99.90;;;;;;5079888;28;20881;-70
2023/04/29 06:57:47;;;;;;;20.40;18.10;;;10.60;99.90;;;;;;5067779;28;20883;-69
2023/04/29 07:00:15;;;;;;;20.40;18.20;;;10.60;99.90;;;;;;5065724;28;20506;-70
2023/04/29 07:02:42;;;;;;;19.17;17.27;;;10.70;99.90;;;;;;5055773;28;20515;-72
2023/04/29 07:05:09;;;;;;;18.50;16.60;;;10.70;99.90;;;;;;5064008;28;20445;-71
2023/04/29 07:07:37;;;;;;;19.73;17.63;;;10.80;99.90;;;;;;5059977;28;20558;-71
2023/04/29 07:10:05;;;;;;;19.67;17.77;;;10.80;99.90;;;;;;5069251;28;20418;-72
2023/04/29 07:12:31;;;;;;;19.25;17.45;;;10.90;99.90;;;;;;5052081;28;20719;-71
2023/04/29 07:14:58;;;;;;;18.55;16.55;;;11.00;99.90;;;;;;5054302;28;20905;-71
2023/04/29 07:17:25;;;;;;;17.38;15.75;;;11.10;99.90;;;;;;5057232;28;20510;-72
2023/04/29 07:19:52;;;;;;;18.23;16.40;;;11.20;99.90;;;;;;5061822;28;20427;-71
2023/04/29 07:22:19;;;;;;;18.07;16.37;;;11.20;99.90;;;;;;5073204;28;20434;-70
2023/04/29 07:24:47;;;;;;;18.67;16.95;;;11.30;99.90;;;;;;5069134;28;20489;-69
2023/04/29 07:27:14;;;;;;;19.10;17.20;;;11.30;99.90;;;;;;5062394;28;20450;-69
2023/04/29 07:29:41;;;;;;;18.38;16.45;;;11.30;99.90;;;;;;5068590;28;20463;-70
2023/04/29 07:32:08;;;;;;;19.10;17.20;;;11.40;99.90;;;;;;5053630;28;20818;-70
2023/04/29 07:34:35;;;;;;;18.15;16.45;;;11.50;99.90;;;;;;5061886;28;20885;-69
2023/04/29 07:37:01;;;;;;;18.00;16.20;;;11.50;99.90;;;;;;5066215;28;20520;-70
2023/04/29 07:39:29;;;;;;;18.25;16.55;;;11.60;99.90;;;;;;5062775;28;20502;-69
2023/04/29 07:41:58;;;;;;;18.43;16.67;;;11.60;99.90;;;;;;5067485;28;20875;-69
2023/04/29 07:44:25;;;;;;;19.00;17.20;;;11.60;99.90;;;;;;5065678;28;20441;-69
2023/04/29 07:46:52;;;;;;;19.20;17.30;;;11.50;99.90;;;;;;5063188;28;20917;-69
2023/04/29 07:49:19;;;;;;;18.10;16.40;;;11.50;99.90;;;;;;5062110;28;20413;-69
2023/04/29 07:51:45;;;;;;;18.10;16.23;;;11.50;99.90;;;;;;5068060;28;20622;-69
2023/04/29 07:54:12;;;;;;;17.88;16.27;;;11.50;99.90;;;;;;5060288;28;21043;-69
2023/04/29 07:56:39;;;;;;;17.75;16.05;;;11.50;99.90;;;;;;5064806;28;20423;-69
2023/04/29 07:59:07;;;;;;;18.83;17.02;;;11.50;99.90;;;;;;5063878;28;20459;-69
2023/04/29 08:01:34;;;;;;;18.58;16.77;;;11.50;99.90;;;;;;5065592;28;20480;-69
2023/04/29 08:04:01;;;;;;;18.10;16.40;;;11.40;99.90;;;;;;5061557;28;20519;-69
2023/04/29 08:06:28;;;;;;;17.98;16.17;;;11.30;99.90;;;;;;5069405;28;20432;-69
2023/04/29 08:08:55;;;;;;;17.85;16.15;;;11.30;99.90;;;;;;5052315;28;20918;-69
2023/04/29 08:11:25;;;;;;;17.13;15.52;;;11.20;99.90;;;;;;5063342;28;20431;-69
2023/04/29 08:13:52;;;;;;;17.80;16.20;;;11.20;99.90;;;;;;5064462;28;20446;-69
2023/04/29 08:16:20;;;;;;;18.38;16.58;;;11.20;99.90;;;;;;5059615;28;20513;-67
2023/04/29 08:18:47;;;;;;;18.50;16.70;;;11.30;99.90;;;;;;5072554;28;20914;-68
2023/04/29 08:21:14;;;;;;;17.30;15.60;;;11.30;99.90;;;;;;5067858;28;20436;-68
2023/04/29 08:23:41;;;;;;;17.30;15.70;;;11.30;99.90;;;;;;5065222;28;20456;-68
2023/04/29 08:26:10;;;;;;;17.25;15.55;;;11.30;99.90;;;;;;5057201;28;21833;-68
2023/04/29 08:28:36;;;;;;;16.88;15.27;;;11.30;99.90;;;;;;5055583;28;20649;-68
2023/04/29 08:31:05;;;;;;;16.40;14.80;;;11.30;99.90;;;;;;5059078;28;20441;-68
2023/04/29 08:33:34;;;;;;;17.17;15.55;;;11.30;99.90;;;;;;5063895;28;20428;-68
2023/04/29 08:36:02;;;;;;;15.93;14.40;;;11.40;99.90;;;;;;5068167;28;20910;-70
2023/04/29 08:38:29;;;;;;;16.05;14.45;;;11.50;99.70;;;;;;5067151;28;20430;-70
2023/04/29 08:40:56;;;;;;;15.70;14.20;;;11.60;99.80;;;;;;5068741;28;20768;-69
2023/04/29 08:43:23;;;;;;;16.65;14.95;;;11.70;99.20;;;;;;5064649;28;20437;-69
2023/04/29 08:45:50;;;;;;;15.30;13.80;;;11.90;99.00;;;;;;5066863;28;20423;-69
2023/04/29 08:48:18;;;;;;;14.95;13.55;;;12.00;98.10;;;;;;5067453;28;20913;-70
2023/04/29 08:50:46;;;;;;;15.10;13.70;;;12.00;97.60;;;;;;5060452;28;20424;-69
2023/04/29 08:53:14;;;;;;;14.65;13.25;;;12.00;98.40;;;;;;5054389;28;20427;-69
2023/04/29 08:55:42;;;;;;;14.20;12.80;;;12.10;97.90;;;;;;5071161;28;20938;-69
2023/04/29 08:58:09;;;;;;;13.90;12.60;;;12.20;98.30;;;;;;5069480;28;21096;-69
2023/04/29 09:00:37;;;;;;;13.70;12.50;;;12.30;97.20;;;;;;5057471;28;20613;-69
2023/04/29 09:03:11;;;;;;;12.43;11.23;;;12.40;96.20;;;;;;5060133;28;20855;-70
2023/04/29 09:05:41;;;;;;;13.70;12.50;;;12.60;95.50;;;;;;5063654;28;20439;-70
2023/04/29 09:08:11;;;;;;;12.85;11.65;;;12.70;95.40;;;;;;5061858;28;20866;-69
2023/04/29 09:10:41;;;;;;;13.50;12.20;;;12.80;94.80;;;;;;5062325;28;20547;-69
2023/04/29 09:13:08;;;;;;;13.53;12.23;;;12.90;94.40;;;;;;5041858;28;20813;-69
2023/04/29 09:15:39;;;;;;;12.90;11.60;;;13.00;93.20;;;;;;5060344;28;20905;-70
2023/04/29 09:18:06;;;;;;;13.35;12.05;;;13.00;93.50;;;;;;5061683;28;20447;-70
2023/04/29 09:20:32;;;;;;;12.68;11.48;;;13.10;93.40;;;;;;5059637;28;20948;-70
2023/04/29 09:23:02;;;;;;;12.73;11.60;;;13.20;93.20;;;;;;5057311;28;20423;-70
2023/04/29 09:25:31;;;;;;;13.43;12.13;;;13.20;93.40;;;;;;5052692;28;20522;-69
2023/04/29 09:27:58;;;;;;;12.68;11.57;;;13.20;92.00;;;;;;5058999;28;20510;-68
2023/04/29 09:30:25;;;;;;;13.07;11.93;;;13.20;92.60;;;;;;5057026;28;20439;-69
2023/04/29 09:33:07;;;;;;;14.30;13.00;;;13.10;93.50;;;;;;5062562;28;20453;-69
2023/04/29 09:35:34;;;;;;;13.98;12.57;;;13.10;93.30;;;;;;5076095;28;20420;-69
2023/04/29 09:38:12;;;;;;;14.15;12.88;;;13.20;93.70;;;;;;5058819;28;20515;-69
2023/04/29 09:40:41;;;;;;;14.77;13.48;;;13.30;93.60;;;;;;5058673;28;20443;-69
2023/04/29 09:43:13;;;;;;;14.65;13.32;;;13.40;93.00;;;;;;5059037;28;20441;-69
2023/04/29 09:45:42;;;;;;;14.70;13.40;;;13.50;91.70;;;;;;5062983;28;20489;-69
2023/04/29 09:48:10;;;;;;;13.83;12.70;;;13.30;91.60;;;;;;5063355;28;20544;-69
2023/04/29 09:50:37;;;;;;;14.10;12.80;;;13.20;92.40;;;;;;5078980;28;20820;-69
2023/04/29 09:53:04;;;;;;;16.10;14.60;;;13.10;92.70;;;;;;5068615;28;20762;-69
2023/04/29 09:55:31;;;;;;;16.98;15.48;;;13.00;92.50;;;;;;5062402;28;20447;-69
2023/04/29 09:58:00;;;;;;;19.15;17.55;;;12.90;93.40;;;;;;5060974;28;20906;-69
2023/04/29 10:00:31;;;;;;;18.55;16.88;;;12.90;93.50;;;;;;5059950;28;20448;-69
2023/04/29 10:03:00;;;;;;;19.50;17.70;;;13.00;93.60;;;;;;5057536;28;20650;-69
2023/04/29 10:05:29;;;;;;;17.30;15.70;;;13.20;93.40;;;;;;5057292;28;20810;-69
2023/04/29 10:07:57;;;;;;;15.35;14.15;;;13.20;93.40;;;;;;5058988;28;20506;-69
2023/04/29 10:10:24;;;;;;;16.60;15.10;;;13.20;92.20;;;;;;5068223;28;20917;-69
2023/04/29 10:12:53;;;;;;;17.30;15.70;;;13.10;92.70;;;;;;5056969;28;20889;-68
2023/04/29 10:15:27;;;;;;;17.70;16.10;;;12.90;92.50;;;;;;5059775;28;20422;-70
2023/04/29 10:18:00;;;;;;;19.37;17.57;;;12.80;93.60;;;;;;5059908;28;20431;-67
2023/04/29 10:20:28;;;;;;;20.70;18.80;;;12.70;94.60;;;;;;5054489;28;20952;-67
2023/04/29 10:22:58;;;;;;;20.87;18.97;;;12.70;94.80;;;;;;5059610;28;20439;-67
2023/04/29 10:25:26;;;;;;;22.35;20.35;;;12.70;94.80;;;;;;5058168;28;20480;-64
2023/04/29 10:27:55;;;;;;;22.60;20.48;;;12.70;94.70;;;;;;5061238;28;20438;-66
2023/04/29 10:30:24;;;;;;;22.15;20.20;;;12.60;94.80;;;;;;5058875;28;20520;-65
2023/04/29 10:32:51;;;;;;;20.58;18.77;;;12.70;95.10;;;;;;5071179;28;20545;-66
2023/04/29 10:35:22;;;;;;;20.77;18.77;;;12.60;94.50;;;;;;5076165;28;22433;-66
2023/04/29 10:37:49;;;;;;;20.08;18.38;;;12.40;95.10;;;;;;5070708;28;20519;-64
2023/04/29 10:40:20;;;;;;;18.95;17.15;;;12.40;95.80;;;;;;5051910;28;20513;-65
2023/04/29 10:42:48;;;;;;;18.77;17.08;;;12.40;95.80;;;;;;5060231;28;20432;-64
2023/04/29 10:45:25;;;;;;;18.60;16.90;;;12.30;96.00;;;;;;5080509;28;20866;-66
2023/04/29 10:48:15;;;;;;;18.60;17.00;;;12.30;96.50;;;;;;5069643;28;20447;-67
2023/04/29 10:51:00;;;;;;;17.67;16.08;;;12.30;96.60;;;;;;5071524;28;20771;-66
2023/04/29 10:53:28;;;;;;;17.90;16.30;;;12.30;96.90;;;;;;5075421;28;20526;-67
2023/04/29 10:55:59;;;;;;;18.02;16.42;;;12.40;96.90;;;;;;5049116;28;20516;-66
2023/04/29 10:58:40;;;;;;;18.48;16.77;;;12.40;97.10;;;;;;5081140;28;20508;-67
2023/04/29 11:01:11;;;;;;;20.77;18.88;;;12.40;97.20;;;;;;5058795;28;20457;-67
2023/04/29 11:03:53;;;;;;;26.88;24.42;;;12.50;97.00;;;;;;5053643;28;20417;-67
2023/04/29 11:06:20;;;;;;;33.28;29.95;;;12.40;96.80;;;;;;5073828;28;20788;-67
2023/04/29 11:08:47;;;;;;;37.85;34.22;;;12.40;97.30;;;;;;5063208;28;20945;-66
2023/04/29 11:11:14;;;;;;;41.40;37.40;;;12.40;97.40;;;;;;5064673;28;20457;-67
2023/04/29 11:13:45;;;;;;;41.60;37.42;;;12.50;97.60;;;;;;5077403;28;20490;-67
2023/04/29 11:16:13;;;;;;;43.42;39.03;;;12.40;97.10;;;;;;5073374;28;20780;-67
2023/04/29 11:19:04;;;;;;;40.40;36.10;;;12.30;97.20;;;;;;5053170;28;20453;-67
2023/04/29 11:21:33;;;;;;;36.10;32.50;;;12.20;97.40;;;;;;5065845;28;20672;-66
2023/04/29 11:24:01;;;;;;;33.30;30.00;;;12.10;97.50;;;;;;5053326;28;20429;-67
2023/04/29 11:26:27;;;;;;;36.40;32.80;;;12.10;98.60;;;;;;5069377;28;20484;-67
2023/04/29 11:28:54;;;;;;;37.33;33.53;;;12.10;98.60;;;;;;5085914;28;20501;-66
2023/04/29 11:31:27;;;;;;;36.67;33.03;;;12.10;98.30;;;;;;5077638;28;20866;-67
2023/04/29 11:33:54;;;;;;;37.83;33.92;;;12.10;98.40;;;;;;5059552;28;20475;-66
2023/04/29 11:36:21;;;;;;;37.97;34.35;;;12.20;98.30;;;;;;5053632;28;20428;-67
2023/04/29 11:38:47;;;;;;;40.33;36.33;;;12.20;98.30;;;;;;5057554;28;20801;-66
2023/04/29 11:41:15;;;;;;;40.95;36.80;;;12.30;98.00;;;;;;5057464;28;20493;-66
2023/04/29 11:43:42;;;;;;;38.85;34.95;;;12.40;97.90;;;;;;5071194;28;20425;-66
2023/04/29 11:46:13;;;;;;;40.55;36.45;;;12.40;97.80;;;;;;5080298;28;20415;-67
2023/04/29 11:48:46;;;;;;;40.80;36.80;;;12.40;97.80;;;;;;5082791;28;20414;-66
2023/04/29 11:51:14;;;;;;;43.80;39.50;;;12.50;97.60;;;;;;5056961;28;20457;-67
2023/04/29 11:53:41;;;;;;;48.10;43.40;;;12.50;97.50;;;;;;5074296;28;20528;-67
2023/04/29 11:56:09;;;;;;;50.90;45.90;;;12.60;97.30;;;;;;5050090;28;20772;-66
2023/04/29 11:58:36;;;;;;;50.80;45.70;;;12.70;97.10;;;;;;5058329;28;20423;-66
2023/04/29 12:01:03;;;;;;;52.17;46.90;;;12.70;96.60;;;;;;5058228;28;20467;-66
2023/04/29 12:03:32;;;;;;;52.53;47.33;;;12.80;96.40;;;;;;5070130;28;20557;-67
2023/04/29 12:06:02;;;;;;;54.13;48.83;;;12.80;96.20;;;;;;5061421;28;20441;-67
2023/04/29 12:08:29;;;;;;;53.13;47.55;;;12.90;96.20;;;;;;5059719;28;20423;-67
2023/04/29 12:10:57;;;;;;;52.67;47.28;;;12.90;96.00;;;;;;5065466;28;20411;-67
2023/04/29 12:13:26;;;;;;;52.95;47.60;;;13.00;95.80;;;;;;5076593;28;20422;-64
2023/04/29 12:15:53;;;;;;;52.10;46.90;;;12.90;95.40;;;;;;5061342;28;20442;-66
2023/04/29 12:18:22;;;;;;;52.75;47.55;;;12.80;95.80;;;;;;5062803;28;20420;-65
2023/04/29 12:20:50;;;;;;;51.67;46.63;;;12.80;96.30;;;;;;5064921;28;20419;-66
2023/04/29 12:23:21;;;;;;;52.20;47.20;;;12.90;96.40;;;;;;5060532;28;20822;-66
2023/04/29 12:25:50;;;;;;;51.10;46.00;;;13.10;96.00;;;;;;5062811;28;20433;-65
2023/04/29 12:28:17;;;;;;;48.15;43.42;;;13.20;95.60;;;;;;5063907;28;20425;-67
2023/04/29 12:30:44;;;;;;;45.53;41.33;;;13.30;95.10;;;;;;5055658;28;20440;-68
2023/04/29 12:33:15;;;;;;;46.22;41.63;;;13.40;94.80;;;;;;5066464;28;20544;-73